createdAt,value
2019-01-17T00:02:30.247Z,4.50
2019-01-17T00:05:04.094Z,4.10
2019-01-17T00:07:53.420Z,4.00
2019-01-17T00:10:24.548Z,4.00
2019-01-17T00:13:11.991Z,4.50
2019-01-17T00:15:45.827Z,4.30
2019-01-17T00:18:31.917Z,4.10
2019-01-17T00:21:03.051Z,4.10
2019-01-17T00:23:37.141Z,4.10
2019-01-17T00:26:24.733Z,4.40
2019-01-17T00:28:58.767Z,4.10
2019-01-17T00:31:44.894Z,4.20
2019-01-17T00:34:16.032Z,4.20
2019-01-17T00:36:56.126Z,4.20
2019-01-17T00:39:27.246Z,4.20
2019-01-17T00:45:15.592Z,4.40
2019-01-17T00:48:03.147Z,4.60
2019-01-17T00:50:46.142Z,4.70
2019-01-17T00:53:17.229Z,4.60
2019-01-17T00:56:04.795Z,4.50
2019-01-17T00:58:38.473Z,4.50
2019-01-17T01:01:18.868Z,4.60
2019-01-17T01:04:07.941Z,4.60
2019-01-17T01:06:41.857Z,4.80
2019-01-17T01:09:15.742Z,4.60
2019-01-17T01:11:46.817Z,4.60
2019-01-17T01:14:33.318Z,4.90
2019-01-17T01:17:04.473Z,4.90
2019-01-17T01:19:38.385Z,4.80
2019-01-17T01:22:09.605Z,4.80
2019-01-17T01:24:49.514Z,4.90
2019-01-17T01:27:32.560Z,5.00
2019-01-17T01:30:06.423Z,4.90
2019-01-17T01:32:42.992Z,4.80
2019-01-17T01:35:16.770Z,5.00
2019-01-17T01:37:47.855Z,5.00
2019-01-17T01:40:35.047Z,5.00
2019-01-17T01:43:06.342Z,4.90
2019-01-17T01:45:52.457Z,5.00
2019-01-17T01:48:23.577Z,4.90
2019-01-17T01:50:54.659Z,5.00
2019-01-17T01:53:24.218Z,5.00
2019-01-17T01:55:53.725Z,4.90
2019-01-17T01:58:23.162Z,4.80
2019-01-17T02:00:52.629Z,4.80
2019-01-17T02:03:22.074Z,4.60
2019-01-17T02:05:51.548Z,5.00
2019-01-17T02:08:20.994Z,4.60
2019-01-17T02:10:50.552Z,4.70
2019-01-17T02:13:19.990Z,4.60
2019-01-17T02:15:49.598Z,4.80
2019-01-17T02:18:19.075Z,4.60
2019-01-17T02:20:48.520Z,4.50
2019-01-17T02:23:17.971Z,4.50
2019-01-17T02:25:47.470Z,4.80
2019-01-17T02:28:16.910Z,4.80
2019-01-17T02:30:46.357Z,4.90
2019-01-17T02:33:15.817Z,4.90
2019-01-17T02:35:45.291Z,4.80
2019-01-17T02:38:14.752Z,4.90
2019-01-17T02:40:44.198Z,5.20
2019-01-17T02:43:13.673Z,5.00
2019-01-17T02:45:43.151Z,4.80
2019-01-17T02:48:12.623Z,5.00
2019-01-17T02:50:42.088Z,5.10
2019-01-17T02:53:11.530Z,4.90
2019-01-17T02:55:41.014Z,4.80
2019-01-17T02:58:10.457Z,5.00
2019-01-17T03:00:39.900Z,5.00
2019-01-17T03:03:09.601Z,5.00
2019-01-17T03:05:39.047Z,5.00
2019-01-17T03:08:08.494Z,5.00
2019-01-17T03:10:37.993Z,4.90
2019-01-17T03:13:07.447Z,4.90
2019-01-17T03:15:36.894Z,4.90
2019-01-17T03:18:06.544Z,5.10
2019-01-17T03:20:36.157Z,5.00
2019-01-17T03:23:05.707Z,5.20
2019-01-17T03:25:35.181Z,5.10
2019-01-17T03:28:04.767Z,5.10
2019-01-17T03:30:35.142Z,5.10
2019-01-17T03:33:04.776Z,5.00
2019-01-17T03:35:34.223Z,4.80
2019-01-17T03:38:03.668Z,5.20
2019-01-17T03:40:33.165Z,5.00
2019-01-17T03:43:02.609Z,5.10
2019-01-17T03:45:32.048Z,5.00
2019-01-17T03:48:01.540Z,4.80
2019-01-17T03:50:30.985Z,5.00
2019-01-17T03:53:00.436Z,4.90
2019-01-17T03:55:29.989Z,4.90
2019-01-17T03:57:59.428Z,4.80
2019-01-17T04:00:28.871Z,5.10
2019-01-17T04:02:58.389Z,4.90
2019-01-17T04:05:27.850Z,5.20
2019-01-17T04:07:57.285Z,5.00
2019-01-17T04:10:26.776Z,4.80
2019-01-17T04:12:56.213Z,4.80
2019-01-17T04:15:25.659Z,4.90
2019-01-17T04:17:55.138Z,4.90
2019-01-17T04:20:24.592Z,5.10
2019-01-17T04:22:54.081Z,5.00
2019-01-17T04:25:23.879Z,4.80
2019-01-17T04:27:53.301Z,5.00
2019-01-17T04:30:22.744Z,5.00
2019-01-17T04:32:52.233Z,5.10
2019-01-17T04:35:21.662Z,5.00
2019-01-17T04:37:51.099Z,5.00
2019-01-17T04:40:20.581Z,5.10
2019-01-17T04:42:50.096Z,5.10
2019-01-17T04:45:19.555Z,5.10
2019-01-17T04:47:49.041Z,5.10
2019-01-17T04:50:18.482Z,5.10
2019-01-17T04:52:47.943Z,5.30
2019-01-17T04:55:17.489Z,5.20
2019-01-17T04:57:47.004Z,5.20
2019-01-17T05:00:19.887Z,5.20
2019-01-17T05:02:49.624Z,5.30
2019-01-17T05:05:19.222Z,5.40
2019-01-17T05:07:48.844Z,5.20
2019-01-17T05:10:19.107Z,5.00
2019-01-17T05:12:48.735Z,5.40
2019-01-17T05:15:18.346Z,5.50
2019-01-17T05:17:47.990Z,5.40
2019-01-17T05:20:18.256Z,5.40
2019-01-17T05:22:47.726Z,5.30
2019-01-17T05:25:17.282Z,5.40
2019-01-17T05:27:46.968Z,5.30
2019-01-17T05:30:20.058Z,5.30
2019-01-17T05:32:49.543Z,5.30
2019-01-17T05:35:18.977Z,5.20
2019-01-17T05:37:48.498Z,5.10
2019-01-17T05:40:19.986Z,5.20
2019-01-17T05:42:49.600Z,5.00
2019-01-17T05:45:19.406Z,5.10
2019-01-17T05:47:48.934Z,5.10
2019-01-17T05:50:19.107Z,4.90
2019-01-17T05:52:48.556Z,4.90
2019-01-17T05:55:20.063Z,4.80
2019-01-17T05:57:49.196Z,4.70
2019-01-17T06:00:21.251Z,4.80
2019-01-17T06:02:50.730Z,4.80
2019-01-17T06:05:20.740Z,5.00
2019-01-17T06:07:50.189Z,4.90
2019-01-17T06:10:19.666Z,4.90
2019-01-17T06:12:49.285Z,4.80
2019-01-17T06:15:20.370Z,4.90
2019-01-17T06:17:49.846Z,4.70
2019-01-17T06:20:19.899Z,4.80
2019-01-17T06:22:49.338Z,4.90
2019-01-17T06:25:18.821Z,5.00
2019-01-17T06:27:48.453Z,5.00
2019-01-17T06:30:18.218Z,4.90
2019-01-17T06:32:47.711Z,5.00
2019-01-17T06:35:17.228Z,5.10
2019-01-17T06:37:46.677Z,4.90
2019-01-17T06:40:21.169Z,4.90
2019-01-17T06:42:50.612Z,5.00
2019-01-17T06:45:20.226Z,4.90
2019-01-17T06:47:49.696Z,4.90
2019-01-17T06:50:19.202Z,5.00
2019-01-17T06:52:48.647Z,5.00
2019-01-17T06:55:18.132Z,4.90
2019-01-17T06:57:47.647Z,5.20
2019-01-17T07:00:18.309Z,5.20
2019-01-17T07:02:47.955Z,5.00
2019-01-17T07:05:17.465Z,5.00
2019-01-17T07:07:46.979Z,4.90
2019-01-17T07:10:18.214Z,5.10
2019-01-17T07:12:47.659Z,5.30
2019-01-17T07:15:17.107Z,5.50
2019-01-17T07:17:46.585Z,5.30
2019-01-17T07:20:17.268Z,5.30
2019-01-17T07:22:47.759Z,5.50
2019-01-17T07:25:17.254Z,5.30
2019-01-17T07:27:46.718Z,5.20
2019-01-17T07:30:22.960Z,5.10
2019-01-17T07:32:52.404Z,5.10
2019-01-17T07:35:22.022Z,5.20
2019-01-17T07:37:51.562Z,5.20
2019-01-17T07:40:21.003Z,5.10
2019-01-17T07:42:50.519Z,5.10
2019-01-17T07:45:24.593Z,5.20
2019-01-17T07:47:54.034Z,5.30
2019-01-17T07:50:23.492Z,5.20
2019-01-17T07:52:52.988Z,5.10
2019-01-17T07:55:22.437Z,5.10
2019-01-17T07:57:51.880Z,5.20
2019-01-17T08:00:23.973Z,5.20
2019-01-17T08:02:53.482Z,5.30
2019-01-17T08:05:22.927Z,5.20
2019-01-17T08:07:52.483Z,5.20
2019-01-17T08:10:21.931Z,5.20
2019-01-17T08:12:51.514Z,5.20
2019-01-17T08:15:21.240Z,5.20
2019-01-17T08:17:50.733Z,5.60
2019-01-17T08:20:24.416Z,5.50
2019-01-17T08:22:54.243Z,5.40
2019-01-17T08:25:23.697Z,5.40
2019-01-17T08:27:53.203Z,5.50
2019-01-17T08:30:25.895Z,5.40
2019-01-17T08:32:55.405Z,5.50
2019-01-17T08:35:24.915Z,5.40
2019-01-17T08:37:54.398Z,5.50
2019-01-17T08:40:27.756Z,5.40
2019-01-17T08:42:57.219Z,5.40
2019-01-17T08:45:26.837Z,5.50
2019-01-17T08:47:56.282Z,5.50
2019-01-17T08:50:26.273Z,5.50
2019-01-17T08:52:55.964Z,5.40
2019-01-17T08:55:25.411Z,5.40
2019-01-17T08:57:54.854Z,5.50
2019-01-17T09:00:27.822Z,5.50
2019-01-17T09:02:57.267Z,5.50
2019-01-17T09:05:26.703Z,5.60
2019-01-17T09:07:56.378Z,5.60
2019-01-17T09:10:30.338Z,5.80
2019-01-17T09:12:59.779Z,5.70
2019-01-17T09:15:33.991Z,5.90
2019-01-17T11:25:46.326Z,7.00
2019-01-17T11:28:32.148Z,6.90
2019-01-17T11:31:30.225Z,7.00
2019-01-17T11:34:22.580Z,7.00
2019-01-17T11:37:23.609Z,7.00
2019-01-17T11:40:31.270Z,7.10
2019-01-17T11:43:19.806Z,7.20
2019-01-17T11:46:10.251Z,7.00
2019-01-17T11:49:02.024Z,7.10
2019-01-17T11:51:58.911Z,7.20
2019-01-17T11:54:47.990Z,7.30
2019-01-17T11:57:33.958Z,7.20
2019-01-17T12:00:27.386Z,7.20
2019-01-17T12:03:19.219Z,7.30
2019-01-17T12:05:48.689Z,7.30
2019-01-17T12:08:18.136Z,7.40
2019-01-17T12:10:47.576Z,7.80
2019-01-17T12:13:17.529Z,7.50
2019-01-17T12:15:47.090Z,7.50
2019-01-17T12:18:16.529Z,7.50
2019-01-17T12:20:46.266Z,7.50
2019-01-17T12:23:15.707Z,7.70
2019-01-17T12:25:45.145Z,7.50
2019-01-17T12:28:14.625Z,7.90
2019-01-17T12:30:44.068Z,7.60
2019-01-17T12:33:13.507Z,7.60
2019-01-17T12:35:42.998Z,7.80
2019-01-17T12:38:12.438Z,7.80
2019-01-17T12:40:41.883Z,7.70
2019-01-17T12:43:11.497Z,8.10
2019-01-17T12:45:40.938Z,8.20
2019-01-17T12:48:10.447Z,8.50
2019-01-17T12:50:40.107Z,8.10
2019-01-17T12:53:09.584Z,8.40
2019-01-17T12:55:39.024Z,8.40
2019-01-17T12:58:08.510Z,8.10
2019-01-17T13:00:37.932Z,8.20
2019-01-17T13:03:07.392Z,8.20
2019-01-17T13:05:36.890Z,8.20
2019-01-17T13:08:06.336Z,7.90
2019-01-17T13:10:35.770Z,8.00
2019-01-17T13:13:05.275Z,7.90
2019-01-17T13:15:34.732Z,7.80
2019-01-17T13:18:04.341Z,7.60
2019-01-17T13:20:33.890Z,7.70
2019-01-17T13:23:03.339Z,7.60
2019-01-17T13:25:32.874Z,7.50
2019-01-17T13:28:02.347Z,7.50
2019-01-17T13:30:31.788Z,7.50
2019-01-17T13:33:01.302Z,7.50
2019-01-17T13:35:30.782Z,7.50
2019-01-17T13:38:00.235Z,7.50
2019-01-17T13:40:29.681Z,7.40
2019-01-17T13:42:59.158Z,7.40
2019-01-17T13:45:28.603Z,7.60
2019-01-17T13:47:58.053Z,7.60
2019-01-17T13:50:27.533Z,7.60
2019-01-17T13:52:56.972Z,7.60
2019-01-17T13:55:26.437Z,7.60
2019-01-17T13:57:55.910Z,7.50
2019-01-17T14:00:26.192Z,7.60
2019-01-17T14:02:55.901Z,7.60
2019-01-17T14:05:25.549Z,7.70
2019-01-17T14:07:55.047Z,7.80
2019-01-17T14:10:24.489Z,7.80
2019-01-17T14:12:54.040Z,7.60
2019-01-17T14:15:29.733Z,7.60
2019-01-17T14:17:59.210Z,7.50
2019-01-17T14:20:28.726Z,7.50
2019-01-17T14:22:58.168Z,7.50
2019-01-17T14:25:27.652Z,7.50
2019-01-17T14:27:57.102Z,7.50
2019-01-17T14:30:33.240Z,7.40
2019-01-17T14:33:02.722Z,7.60
2019-01-17T14:35:32.162Z,7.40
2019-01-17T14:38:01.603Z,7.40
2019-01-17T14:40:31.099Z,7.60
2019-01-17T14:43:00.540Z,7.70
2019-01-17T14:45:30.012Z,7.50
2019-01-17T14:47:59.464Z,7.50
2019-01-17T14:50:31.704Z,7.40
2019-01-17T14:53:01.151Z,7.40
2019-01-17T14:55:30.633Z,7.30
2019-01-17T14:58:00.069Z,7.50
2019-01-17T15:00:32.315Z,7.30
2019-01-17T15:03:02.824Z,7.50
2019-01-17T15:05:32.450Z,7.40
2019-01-17T15:08:01.881Z,7.30
2019-01-17T15:10:36.130Z,7.40
2019-01-17T15:13:06.114Z,7.40
2019-01-17T15:15:35.720Z,7.40
2019-01-17T15:18:06.398Z,7.30
2019-01-17T15:20:35.839Z,7.30
2019-01-17T15:23:05.686Z,7.50
2019-01-17T15:25:35.216Z,7.70
2019-01-17T15:28:05.876Z,7.60
2019-01-17T15:30:35.518Z,7.60
2019-01-17T15:33:05.434Z,7.40
2019-01-17T15:35:34.950Z,7.40
2019-01-17T15:38:04.556Z,7.50
2019-01-17T15:40:34.186Z,7.60
2019-01-17T15:43:03.771Z,7.60
2019-01-17T15:45:33.223Z,7.40
2019-01-17T15:48:02.803Z,7.50
2019-01-17T15:50:32.308Z,7.40
2019-01-17T15:53:02.215Z,7.50
2019-01-17T15:55:31.664Z,7.40
2019-01-17T15:58:01.138Z,7.60
2019-01-17T16:00:32.020Z,7.60
2019-01-17T16:03:01.564Z,7.50
2019-01-17T16:05:31.066Z,7.40
2019-01-17T16:08:00.500Z,7.50
2019-01-17T16:10:29.938Z,7.50
2019-01-17T16:13:01.501Z,7.50
2019-01-17T16:15:30.943Z,7.50
2019-01-17T16:18:00.397Z,7.50
2019-01-17T16:20:29.878Z,7.50
2019-01-17T16:22:59.465Z,7.50
2019-01-17T16:25:29.169Z,7.60
2019-01-17T16:27:58.611Z,7.50
2019-01-17T16:30:30.237Z,7.60
2019-01-17T16:32:59.673Z,7.60
2019-01-17T16:35:29.282Z,7.60
2019-01-17T16:37:58.748Z,7.50
2019-01-17T16:40:28.383Z,7.50
2019-01-17T16:42:57.811Z,7.50
2019-01-17T16:45:27.450Z,7.30
2019-01-17T16:47:56.935Z,7.30
2019-01-17T16:50:27.163Z,7.40
2019-01-17T16:52:56.631Z,7.40
2019-01-17T16:55:26.085Z,7.50
2019-01-17T16:57:55.554Z,7.50
2019-01-17T17:00:35.352Z,7.40
2019-01-17T17:03:04.899Z,7.60
2019-01-17T17:05:34.502Z,7.50
2019-01-17T17:08:04.115Z,7.50
2019-01-17T17:10:33.742Z,7.40
2019-01-17T17:13:03.329Z,7.40
2019-01-17T17:15:32.840Z,7.40
2019-01-17T17:18:02.320Z,7.60
2019-01-17T17:20:31.839Z,7.50
2019-01-17T17:23:01.278Z,7.50
2019-01-17T17:25:30.764Z,7.50
2019-01-17T17:28:00.214Z,7.50
2019-01-17T17:30:30.323Z,7.60
2019-01-17T17:32:59.802Z,7.60
2019-01-17T17:35:29.249Z,7.50
2019-01-17T17:37:58.773Z,7.50
2019-01-17T17:40:29.786Z,7.50
2019-01-17T17:42:59.225Z,7.40
2019-01-17T17:45:28.803Z,7.30
2019-01-17T17:47:58.292Z,7.40
2019-01-17T17:50:27.730Z,7.30
2019-01-17T17:52:57.172Z,7.40
2019-01-17T17:55:26.673Z,7.50
2019-01-17T17:58:01.970Z,7.40
2019-01-17T18:00:41.293Z,7.40
2019-01-17T18:03:10.905Z,7.40
2019-01-17T18:05:40.616Z,7.40
2019-01-17T18:08:10.140Z,7.40
2019-01-17T18:10:39.597Z,7.40
2019-01-17T18:13:09.043Z,7.40
2019-01-17T18:15:38.535Z,7.40
2019-01-17T18:18:08.148Z,7.20
2019-01-17T18:20:37.684Z,7.30
2019-01-17T18:23:07.129Z,7.30
2019-01-17T18:25:36.569Z,7.10
2019-01-17T18:28:08.830Z,7.10
2019-01-17T18:30:37.551Z,7.20
2019-01-17T18:33:07.014Z,7.00
2019-01-17T18:35:36.490Z,7.00
2019-01-17T18:38:06.241Z,7.00
2019-01-17T18:40:35.752Z,7.10
2019-01-17T18:43:06.067Z,7.10
2019-01-17T18:45:35.505Z,7.20
2019-01-17T18:48:05.349Z,7.00
2019-01-17T18:50:36.342Z,7.00
2019-01-17T18:53:06.056Z,7.10
2019-01-17T18:55:35.560Z,7.20
2019-01-17T18:58:05.218Z,7.10
2019-01-17T19:00:34.660Z,7.20
2019-01-17T19:03:04.277Z,7.20
2019-01-17T19:05:34.106Z,7.20
2019-01-17T19:08:03.745Z,7.20
2019-01-17T19:10:33.363Z,7.20
2019-01-17T19:13:02.842Z,7.20
2019-01-17T19:15:34.879Z,7.20
2019-01-17T19:18:04.559Z,7.00
2019-01-17T19:20:34.116Z,7.00
2019-01-17T19:23:03.565Z,6.90
2019-01-17T19:25:33.011Z,7.00
2019-01-17T19:28:02.482Z,6.90
2019-01-17T19:30:32.104Z,7.00
2019-01-17T19:33:01.644Z,6.90
2019-01-17T19:35:31.097Z,6.90
2019-01-17T19:38:00.558Z,6.80
2019-01-17T19:40:31.007Z,6.80
2019-01-17T19:43:00.454Z,6.80
2019-01-17T19:45:29.938Z,6.80
2019-01-17T19:47:59.696Z,6.90
2019-01-17T19:50:35.526Z,6.80
2019-01-17T19:53:05.539Z,6.70
2019-01-17T19:55:35.221Z,6.70
2019-01-17T19:58:04.900Z,6.70
2019-01-17T20:00:34.568Z,6.60
2019-01-17T20:03:04.655Z,6.70
2019-01-17T20:05:34.644Z,6.70
2019-01-17T20:08:04.234Z,6.60
2019-01-17T20:10:35.282Z,6.70
2019-01-17T20:13:06.392Z,6.70
2019-01-17T20:15:35.896Z,6.70
2019-01-17T20:18:06.620Z,6.70
2019-01-17T20:20:36.187Z,6.50
2019-01-17T20:23:05.705Z,6.50
2019-01-17T20:25:35.342Z,6.50
2019-01-17T20:28:05.267Z,6.60
2019-01-17T20:30:35.423Z,6.50
2019-01-17T20:33:05.277Z,6.50
2019-01-17T20:35:34.773Z,6.40
2019-01-17T20:38:04.749Z,6.50
2019-01-17T20:40:34.262Z,6.40
2019-01-17T20:43:03.910Z,6.60
2019-01-17T20:45:33.424Z,6.50
2019-01-17T20:48:02.884Z,6.50
2019-01-17T20:50:33.286Z,6.60
2019-01-17T20:53:02.808Z,6.60
2019-01-17T20:55:32.246Z,6.40
2019-01-17T20:58:03.287Z,6.50
2019-01-17T21:00:43.317Z,6.50
2019-01-17T21:03:15.347Z,6.30
2019-01-17T21:05:44.784Z,6.30
2019-01-17T21:08:14.276Z,6.30
2019-01-17T21:10:43.725Z,6.20
2019-01-17T21:13:13.166Z,6.10
2019-01-17T21:15:42.648Z,5.90
2019-01-17T21:18:12.103Z,5.90
2019-01-17T21:20:41.580Z,5.90
2019-01-17T21:23:11.085Z,5.70
2019-01-17T21:25:40.559Z,5.90
2019-01-17T21:28:10.047Z,5.90
2019-01-17T21:30:39.489Z,5.90
2019-01-17T21:33:09.575Z,6.00
2019-01-17T21:35:39.066Z,5.90
2019-01-17T21:38:08.518Z,5.80
2019-01-17T21:40:37.954Z,5.70
2019-01-17T21:43:07.446Z,5.70
2019-01-17T21:45:36.892Z,5.70
2019-01-17T21:48:06.349Z,5.80
2019-01-17T21:50:35.853Z,5.80
2019-01-17T21:53:05.579Z,6.10
2019-01-17T21:55:35.020Z,5.70
2019-01-17T21:58:06.260Z,5.80
2019-01-17T22:00:35.771Z,5.70
2019-01-17T22:03:05.215Z,5.60
2019-01-17T22:05:34.700Z,5.50
2019-01-17T22:08:04.313Z,5.50
2019-01-17T22:10:33.746Z,5.50
2019-01-17T22:13:03.229Z,5.50
2019-01-17T22:15:32.669Z,5.60
2019-01-17T22:18:02.115Z,5.60
2019-01-17T22:20:31.612Z,5.60
2019-01-17T22:23:01.030Z,5.60
2019-01-17T22:25:30.480Z,5.60
2019-01-17T22:27:59.929Z,5.40
2019-01-17T22:30:31.352Z,5.40
2019-01-17T22:33:00.861Z,5.40
2019-01-17T22:35:30.310Z,5.40
2019-01-17T22:37:59.757Z,5.60
2019-01-17T22:40:29.233Z,5.50
2019-01-17T22:42:58.748Z,5.40
2019-01-17T22:45:31.881Z,5.40
2019-01-17T22:48:01.320Z,5.50
2019-01-17T22:50:30.797Z,5.50
2019-01-17T22:53:00.235Z,5.50
2019-01-17T22:55:29.669Z,5.50
2019-01-17T22:57:59.147Z,5.40
2019-01-17T23:00:55.353Z,5.40
2019-01-17T23:03:31.955Z,5.30
2019-01-17T23:06:01.400Z,5.20
2019-01-17T23:08:30.882Z,5.10
2019-01-17T23:11:00.323Z,5.10
2019-01-17T23:13:29.799Z,5.00
2019-01-17T23:15:59.243Z,4.90
2019-01-17T23:18:28.711Z,4.90
2019-01-17T23:20:58.155Z,4.80
2019-01-17T23:23:27.712Z,4.80
2019-01-17T23:25:57.174Z,4.90
2019-01-17T23:28:26.609Z,4.70
2019-01-17T23:30:56.083Z,4.70
2019-01-17T23:33:25.516Z,4.80
2019-01-17T23:35:54.998Z,4.80
2019-01-17T23:38:24.439Z,4.70
2019-01-17T23:40:53.980Z,4.60
2019-01-17T23:43:23.418Z,4.50
2019-01-17T23:45:52.872Z,4.50
2019-01-17T23:48:22.315Z,4.30
2019-01-17T23:50:52.195Z,4.30
2019-01-17T23:53:21.635Z,4.20
2019-01-17T23:55:51.074Z,4.10
2019-01-17T23:58:20.551Z,4.10
